Record high temperature 13.0°C Record low temperature -15.0°C Record high gust 28.1 kts Record high average 16.0 kts Record daily rain 0.0 mm Record low windchill -36.5°C Record high barometer 1029.5 hPa Record low barometer 987.9 hPa
Daily high pressure 1028.8 mb Daily low pressure 1027.1 mb Daily low windchill -7.8°C Daily high heat index 0.9°C Daily high gust speed 18.0 kts N Daily high average speed 10.0 kts N
ESUI Weather
LAST READING AT TIME: 14:25 DATE: 26 November 2022, time of next update: 14:30
Current WeatherDry Current Temperature 0.5°C (32.9°F), Apparent temp -4.3°C, Apparent temp solar -4.3°C
Maximum Temperature (since midnight)0.9°C at: 12:11 Minimum Temperature (since midnight)-2.2°C at: 00:29
Average windspeed (ten minute)10.0 kts (18.5 kmh) Wind Direction (ten minute)N (360°)
Windchill Temperature -4.4°C Maximum Gust (last hour)18.0 kts (33.3 kmh) at: 13:25
Maximum Gust (since midnight)18.0 kts (33.3 kmh) at: 03:19 Maximum 1 minute average (since midnight)10.0 kts (18.5 kmh) at: 00:00
Rainfall (last hour)0.0 mm Rainfall (since midnight)0.0 mm (0.00 in.)---
Rainfall This month 0.0 mm (0.00 in.) Rainfall To date this year 0.0 mm (0.00 in.)
Maximum rain per minute (last hour)0.0 mm/min Maximum rain per hour (last 6 hours)0.0 mm/hour
Yesterdays rainfall 0.0 mm DewPoint -0.1°C (Wet Bulb :0.3°C )
Humidity 96 %, Humidex -1.7°C Barometer corrected to msl1028.6 mb
Pressure change -0.2 mb (last hour) Trend (last hour)STEADY
Pressure change (last 12 hours)+1.3 mb Pressure change (last 6 hours)+0.5 mb
Current Indoor Temp. 0.9°C
Current Indoor Hum. 58%
Current 00:00 hours of sunshine today, current sky: Overcast and gloomy
Sunshine hours for the year: 00:00 hrs Sunshine hours for the month: 00:00 hrs
Current evapotranspiration rate 0.9 mm per day. Yesterday's reading 0.4



Weather report/warning/Metars

Ornskoldsvik Airport, Sweden (ESNO) 63-24N 018-58E
Nov 26, 2022 - 07:50 AM EST / 2022.11.26 1250 UTC
Wind: from the SE (140 degrees) at 5 MPH (4 KT):0
Visibility: greater than 7 mile(s):0
Sky conditions: overcast
Temperature: 32 F (0 C)
Windchill: 26 F (-3 C):1
Dew Point: 32 F (0 C)
Relative Humidity: 100%
Pressure (altimeter): 30.36 in. Hg (1028 hPa)
ob: ESNO 261250Z AUTO 14004KT 9999 OVC021/// 00/00 Q1028
cycle: 13
Kramfors Flygplats, Sweden (ESNK) 63-03N 017-46E 19M
Nov 26, 2022 - 07:50 AM EST / 2022.11.26 1250 UTC
Wind: from the S (190 degrees) at 1 MPH (1 KT):0
Visibility: greater than 7 mile(s):0
Sky conditions: overcast
Weather: drizzle
Temperature: 33 F (1 C)
Dew Point: 33 F (1 C)
Relative Humidity: 100%
Pressure (altimeter): 30.36 in. Hg (1028 hPa)
ob: ESNK 261250Z AUTO 19001KT 9999 DZ OVC010/// 01/01 Q1028 REUP
cycle: 13
Umea Flygplats, Sweden (ESNU) 63-48N 020-17E 14M
Nov 26, 2022 - 07:50 AM EST / 2022.11.26 1250 UTC
Wind: from the SE (130 degrees) at 3 MPH (3 KT):0
Visibility: greater than 7 mile(s):0
Sky conditions: overcast
Temperature: 32 F (0 C)
Dew Point: 28 F (-2 C)
Relative Humidity: 86%
Pressure (altimeter): 30.42 in. Hg (1030 hPa)
ob: ESNU 261250Z 13003KT 9999 OVC016 M00/M02 Q1030
cycle: 13
Skelleftea Airport, Sweden (ESNS) 64-38N 021-05E
Nov 26, 2022 - 07:50 AM EST / 2022.11.26 1250 UTC
Wind: from the S (170 degrees) at 3 MPH (3 KT) (direction variable):0
Visibility: greater than 7 mile(s):0
Sky conditions: overcast
Temperature: 30 F (-1 C)
Dew Point: 30 F (-1 C)
Relative Humidity: 100%
Pressure (altimeter): 30.39 in. Hg (1029 hPa)
ob: ESNS 261250Z 17003KT 140V200 9999 OVC007 M01/M01 Q1029
cycle: 13



The data is logged at two minute intervals, but there is data recorded every minute.

Use the RELOAD facility on your browser to retrieve the latest data.

Created by "Weather Display" software version 10.37S at this start time/date 06:02:32 2022-11-26